createdAt,value
2022-11-02T00:01:24.017Z,24.67
2022-11-02T00:03:52.596Z,24.25
2022-11-02T00:06:20.799Z,25.73
2022-11-02T00:08:49.086Z,25.80
2022-11-02T00:11:18.752Z,25.63
2022-11-02T00:13:47.324Z,27.25
2022-11-02T00:16:16.856Z,26.02
2022-11-02T00:18:45.753Z,28.50
2022-11-02T00:21:14.899Z,27.63
2022-11-02T00:23:43.541Z,27.60
2022-11-02T00:26:11.760Z,28.55
2022-11-02T00:28:41.418Z,27.75
2022-11-02T00:31:10.104Z,27.15
2022-11-02T00:33:38.459Z,26.77
2022-11-02T00:36:06.915Z,27.55
2022-11-02T00:38:35.329Z,27.80
2022-11-02T00:41:03.704Z,26.25
2022-11-02T00:43:32.148Z,25.75
2022-11-02T00:46:02.159Z,24.42
2022-11-02T00:48:30.547Z,24.83
2022-11-02T00:50:58.850Z,26.40
2022-11-02T00:53:27.445Z,25.17
2022-11-02T00:55:55.835Z,27.98
2022-11-02T00:58:24.264Z,26.95
2022-11-02T01:00:52.469Z,26.38
2022-11-02T01:03:22.307Z,25.85
2022-11-02T01:05:50.467Z,26.13
2022-11-02T01:08:18.965Z,24.90
2022-11-02T01:10:48.409Z,25.95
2022-11-02T01:13:17.079Z,24.00
2022-11-02T01:15:45.320Z,25.88
2022-11-02T01:18:14.151Z,26.30
2022-11-02T01:20:43.797Z,25.35
2022-11-02T01:23:12.291Z,25.83
2022-11-02T01:25:46.252Z,28.05
2022-11-02T01:28:14.802Z,26.42
2022-11-02T01:30:43.071Z,26.70
2022-11-02T01:33:12.203Z,25.55
2022-11-02T01:35:40.376Z,26.88
2022-11-02T01:38:10.290Z,26.02
2022-11-02T01:40:39.356Z,28.63
2022-11-02T01:43:21.752Z,26.75
2022-11-02T01:45:51.153Z,26.38
2022-11-02T01:48:21.274Z,26.35
2022-11-02T01:50:50.213Z,28.35
2022-11-02T01:53:19.882Z,27.30
2022-11-02T01:55:48.283Z,26.95
2022-11-02T01:58:16.757Z,26.48
2022-11-02T02:00:45.176Z,27.00
2022-11-02T02:03:17.810Z,26.55
2022-11-02T02:05:49.170Z,26.08
2022-11-02T02:08:20.874Z,26.80
2022-11-02T02:10:49.038Z,27.13
2022-11-02T02:13:18.122Z,25.42
2022-11-02T02:15:50.973Z,27.52
2022-11-02T02:18:25.070Z,30.83
2022-11-02T02:21:04.072Z,32.28
2022-11-02T02:23:50.087Z,32.40
2022-11-02T02:26:41.729Z,30.90
2022-11-02T02:29:13.063Z,30.33
2022-11-02T02:31:44.649Z,28.40
2022-11-02T02:34:17.612Z,28.17
2022-11-02T02:36:49.240Z,28.60
2022-11-02T02:39:21.219Z,27.17
2022-11-02T02:41:56.003Z,26.52
2022-11-02T02:44:30.074Z,25.00
2022-11-02T02:47:00.705Z,25.25
2022-11-02T02:49:31.702Z,24.90
2022-11-02T02:52:00.947Z,24.65
2022-11-02T02:54:33.013Z,24.27
2022-11-02T02:57:05.097Z,21.08
2022-11-02T02:59:38.043Z,23.13
2022-11-02T03:02:07.586Z,22.17
2022-11-02T03:04:36.046Z,24.70
2022-11-02T03:07:04.507Z,22.80
2022-11-02T03:09:36.946Z,23.80
2022-11-02T03:12:12.941Z,24.27
2022-11-02T03:14:49.844Z,24.75
2022-11-02T03:17:19.327Z,24.25
2022-11-02T03:19:52.660Z,23.70
2022-11-02T03:22:26.423Z,23.05
2022-11-02T03:25:01.427Z,25.23
2022-11-02T03:27:36.747Z,24.23
2022-11-02T03:30:09.871Z,23.85
2022-11-02T03:32:40.846Z,23.80
2022-11-02T03:35:14.357Z,23.58
2022-11-02T03:37:46.404Z,24.30
2022-11-02T03:40:18.474Z,24.50
2022-11-02T03:42:47.268Z,24.08
2022-11-02T03:45:20.085Z,24.08
2022-11-02T03:47:50.976Z,23.83
2022-11-02T03:50:22.851Z,24.02
2022-11-02T03:52:57.233Z,24.73
2022-11-02T03:55:30.022Z,22.52
2022-11-02T03:57:59.245Z,23.13
2022-11-02T04:00:31.543Z,25.38
2022-11-02T04:03:04.196Z,23.40
2022-11-02T04:05:34.254Z,23.65
2022-11-02T04:08:20.443Z,22.52
2022-11-02T04:11:06.679Z,23.20
2022-11-02T04:13:52.744Z,24.33
2022-11-02T04:16:27.551Z,23.85
2022-11-02T04:19:14.151Z,24.98
2022-11-02T04:22:03.085Z,26.17
2022-11-02T04:24:48.715Z,24.38
2022-11-02T04:27:20.912Z,24.40
2022-11-02T04:29:49.608Z,24.02
2022-11-02T04:32:39.945Z,25.42
2022-11-02T04:35:08.498Z,24.75
2022-11-02T04:37:58.351Z,26.67
2022-11-02T04:40:26.717Z,27.63
2022-11-02T04:42:55.074Z,26.23
2022-11-02T04:45:23.361Z,28.67
2022-11-02T04:47:52.952Z,25.95
2022-11-02T04:50:21.036Z,27.33
2022-11-02T04:52:56.891Z,27.05
2022-11-02T04:55:25.112Z,25.98
2022-11-02T04:57:53.467Z,26.00
2022-11-02T05:00:22.716Z,25.17
2022-11-02T05:02:52.644Z,26.17
2022-11-02T05:05:20.896Z,25.02
2022-11-02T05:07:49.300Z,27.20
2022-11-02T05:10:17.588Z,24.85
2022-11-02T05:12:45.895Z,25.33
2022-11-02T05:15:14.065Z,24.75
2022-11-02T05:17:42.504Z,24.67
2022-11-02T05:20:12.511Z,25.45
2022-11-02T05:22:43.363Z,24.25
2022-11-02T05:25:11.745Z,25.13
2022-11-02T05:27:40.214Z,28.02
2022-11-02T05:30:09.109Z,27.52
2022-11-02T05:32:37.531Z,25.83
2022-11-02T05:35:06.345Z,25.52
2022-11-02T05:37:36.179Z,24.02
2022-11-02T05:40:04.982Z,26.45
2022-11-02T05:42:33.391Z,25.35
2022-11-02T05:45:03.203Z,25.77
2022-11-02T05:47:31.497Z,26.40
2022-11-02T05:49:59.627Z,26.02
2022-11-02T05:52:27.957Z,28.02
2022-11-02T05:54:57.414Z,23.83
2022-11-02T05:57:25.773Z,26.85
2022-11-02T05:59:54.049Z,26.65
2022-11-02T06:02:24.756Z,26.90
2022-11-02T06:07:22.242Z,24.90
2022-11-02T06:09:50.357Z,25.40
2022-11-02T06:12:20.264Z,29.77
2022-11-02T06:14:48.354Z,30.77
2022-11-02T06:17:16.587Z,30.05
2022-11-02T06:19:44.696Z,31.35
2022-11-02T06:22:12.996Z,30.50
2022-11-02T06:24:41.246Z,30.60
2022-11-02T06:27:09.586Z,28.42
2022-11-02T06:29:39.560Z,29.13
2022-11-02T06:32:07.779Z,28.75
2022-11-02T06:34:36.012Z,28.65
2022-11-02T06:37:04.265Z,27.33
2022-11-02T06:39:32.429Z,24.95
2022-11-02T06:42:00.662Z,25.75
2022-11-02T06:44:28.878Z,26.58
2022-11-02T06:46:59.643Z,28.40
2022-11-02T06:49:27.837Z,26.27
2022-11-02T06:51:56.172Z,24.38
2022-11-02T06:54:24.415Z,24.10
2022-11-02T06:56:52.772Z,25.23
2022-11-02T06:59:21.053Z,27.58
2022-11-02T07:01:54.059Z,25.63
2022-11-02T07:04:23.883Z,26.25
2022-11-02T07:06:52.151Z,24.83
2022-11-02T07:09:20.289Z,23.67
2022-11-02T07:11:48.507Z,23.70
2022-11-02T07:14:16.651Z,24.00
2022-11-02T07:16:45.157Z,21.20
2022-11-02T07:19:13.338Z,22.02
2022-11-02T07:21:46.557Z,18.75
2022-11-02T07:24:16.135Z,19.17
2022-11-02T07:26:44.573Z,18.80
2022-11-02T07:29:12.668Z,17.33
2022-11-02T07:31:41.367Z,17.23
2022-11-02T07:34:14.055Z,18.25
2022-11-02T07:36:46.354Z,19.35
2022-11-02T07:39:14.563Z,16.77
2022-11-02T07:41:45.661Z,15.43
2022-11-02T07:44:16.900Z,16.52
2022-11-02T07:46:45.394Z,17.02
2022-11-02T07:49:17.314Z,16.63
2022-11-02T07:51:50.107Z,17.58
2022-11-02T07:54:18.181Z,17.38
2022-11-02T07:56:46.647Z,16.23
2022-11-02T07:59:14.803Z,16.77
2022-11-02T08:01:43.217Z,17.70
2022-11-02T08:04:11.609Z,17.67
2022-11-02T08:06:40.070Z,17.52
2022-11-02T08:09:09.604Z,17.02
2022-11-02T08:11:58.245Z,17.40
2022-11-02T08:14:26.263Z,15.85
2022-11-02T08:16:54.808Z,16.73
2022-11-02T08:19:23.217Z,15.18
2022-11-02T08:21:51.454Z,16.33
2022-11-02T08:24:21.188Z,13.98
2022-11-02T08:26:52.316Z,14.48
2022-11-02T08:29:23.431Z,13.73
2022-11-02T08:31:51.696Z,14.73
2022-11-02T08:34:20.077Z,14.20
2022-11-02T08:36:48.297Z,12.48
2022-11-02T08:39:19.160Z,13.73
2022-11-02T08:41:48.834Z,11.38
2022-11-02T08:44:17.404Z,12.02
2022-11-02T08:46:45.705Z,13.15
2022-11-02T08:49:14.160Z,12.63
2022-11-02T08:51:42.394Z,12.10
2022-11-02T08:54:10.936Z,11.85
2022-11-02T08:56:39.196Z,11.75
2022-11-02T08:59:09.679Z,11.55
2022-11-02T09:01:39.160Z,11.18
2022-11-02T09:04:07.618Z,12.77
2022-11-02T09:06:35.819Z,12.15
2022-11-02T09:09:04.147Z,12.48
2022-11-02T09:11:32.293Z,11.55
2022-11-02T09:14:00.639Z,12.90
2022-11-02T09:16:30.127Z,13.35
2022-11-02T09:18:58.485Z,12.50
2022-11-02T09:21:26.739Z,12.85
2022-11-02T09:23:55.206Z,12.98
2022-11-02T09:26:23.305Z,12.60
2022-11-02T09:28:51.676Z,13.75
2022-11-02T09:31:19.812Z,12.20
2022-11-02T09:33:49.566Z,12.82
2022-11-02T09:36:17.716Z,13.50
2022-11-02T09:38:46.125Z,12.98
2022-11-02T09:41:17.664Z,12.10
2022-11-02T09:43:54.995Z,12.48
2022-11-02T09:46:25.725Z,11.38
2022-11-02T09:48:58.235Z,13.15
2022-11-02T09:51:29.553Z,12.60
2022-11-02T09:54:04.879Z,12.30
2022-11-02T09:56:33.615Z,12.98
2022-11-02T09:59:04.293Z,10.98
2022-11-02T10:01:55.549Z,10.68
2022-11-02T10:04:50.504Z,9.05
2022-11-02T10:07:25.599Z,9.70
2022-11-02T10:09:56.102Z,7.05
2022-11-02T10:12:29.578Z,7.68
2022-11-02T10:15:03.916Z,8.27
2022-11-02T10:17:35.784Z,10.30
2022-11-02T10:20:08.538Z,9.68
2022-11-02T10:22:39.368Z,9.30
2022-11-02T10:25:09.152Z,9.13
2022-11-02T10:27:40.082Z,8.50
2022-11-02T10:30:12.399Z,9.23
2022-11-02T10:35:40.698Z,8.07
2022-11-02T10:38:16.726Z,8.57
2022-11-02T10:41:00.435Z,7.68
2022-11-02T10:43:36.312Z,8.13
2022-11-02T10:46:20.804Z,8.00
2022-11-02T10:48:57.647Z,7.47
2022-11-02T10:51:27.583Z,8.52
2022-11-02T10:53:55.858Z,8.18
2022-11-02T10:56:25.294Z,7.53
2022-11-02T10:59:00.623Z,8.48
2022-11-02T11:01:30.965Z,8.45
2022-11-02T11:04:01.179Z,7.43
2022-11-02T11:06:33.449Z,6.50
2022-11-02T11:09:04.482Z,6.93
2022-11-02T11:11:34.702Z,6.70
2022-11-02T11:16:55.431Z,5.22
2022-11-02T11:22:28.642Z,4.40
2022-11-02T11:25:25.850Z,4.88
2022-11-02T11:27:56.456Z,14.32
2022-11-02T11:30:58.504Z,4.47
2022-11-02T11:33:16.447Z,4.40
2022-11-02T11:35:49.401Z,4.97
2022-11-02T11:38:21.273Z,4.60
2022-11-02T11:40:53.961Z,4.90
2022-11-02T11:43:24.481Z,4.68
2022-11-02T11:46:01.919Z,4.85
2022-11-02T11:48:36.829Z,4.70
2022-11-02T11:51:06.281Z,5.80
2022-11-02T11:53:38.773Z,5.88
2022-11-02T11:56:07.417Z,5.47
2022-11-02T11:58:36.196Z,6.28
2022-11-02T12:01:10.716Z,5.38
2022-11-02T12:03:53.294Z,5.50
2022-11-02T12:06:26.883Z,5.05
2022-11-02T12:09:04.550Z,5.45
2022-11-02T12:11:48.549Z,5.05
2022-11-02T12:14:29.590Z,4.93
2022-11-02T12:17:10.789Z,5.38
2022-11-02T12:19:51.993Z,5.57
2022-11-02T12:22:25.359Z,4.30
2022-11-02T12:25:30.200Z,4.00
2022-11-02T12:28:04.621Z,4.72
2022-11-02T12:30:37.981Z,5.00
2022-11-02T12:33:10.072Z,4.53
2022-11-02T12:36:06.824Z,3.75
2022-11-02T12:39:08.264Z,4.15
2022-11-02T12:41:46.333Z,4.25
2022-11-02T12:44:35.556Z,3.92
2022-11-02T12:47:09.976Z,4.00
2022-11-02T12:49:42.852Z,3.60
2022-11-02T12:52:22.857Z,4.50
2022-11-02T12:54:55.349Z,4.70
2022-11-02T12:57:27.061Z,4.80
2022-11-02T12:59:59.225Z,5.75
2022-11-02T13:02:30.366Z,5.10
2022-11-02T13:05:01.843Z,5.07
2022-11-02T13:07:33.509Z,4.80
2022-11-02T13:10:04.792Z,5.03
2022-11-02T13:12:37.493Z,5.30
2022-11-02T13:15:11.796Z,5.53
2022-11-02T13:17:44.255Z,4.90
2022-11-02T13:20:17.300Z,4.90
2022-11-02T13:22:48.728Z,5.72
2022-11-02T13:25:19.818Z,5.82
2022-11-02T13:30:19.776Z,5.25
2022-11-02T13:32:51.619Z,5.20
2022-11-02T13:35:30.958Z,6.32
2022-11-02T13:38:05.700Z,4.40
2022-11-02T13:40:38.197Z,6.80
2022-11-02T13:43:42.049Z,5.78
2022-11-02T13:46:20.087Z,5.70
2022-11-02T13:48:56.191Z,5.15
2022-11-02T13:51:32.634Z,5.20
2022-11-02T13:54:03.121Z,5.03
2022-11-02T13:56:31.595Z,5.13
2022-11-02T13:59:03.946Z,5.63
2022-11-02T14:01:34.271Z,6.30
2022-11-02T14:04:07.443Z,7.30
2022-11-02T14:06:46.171Z,6.50
2022-11-02T14:09:26.091Z,6.40
2022-11-02T14:12:12.711Z,6.10
2022-11-02T14:14:42.637Z,6.10
2022-11-02T14:17:15.081Z,6.38
2022-11-02T14:19:55.584Z,6.20
2022-11-02T14:22:23.903Z,6.50
2022-11-02T14:25:17.504Z,6.93
2022-11-02T14:27:45.988Z,13.48
2022-11-02T14:30:47.601Z,10.43
2022-11-02T14:33:42.442Z,10.38
2022-11-02T14:36:19.673Z,14.95
2022-11-02T14:38:56.284Z,13.18
2022-11-02T14:41:48.633Z,10.70
2022-11-02T14:44:45.542Z,12.60
2022-11-02T14:47:16.485Z,12.13
2022-11-02T14:49:49.598Z,10.30
2022-11-02T14:52:36.170Z,11.18
2022-11-02T14:55:06.887Z,11.40
2022-11-02T14:57:37.039Z,11.55
2022-11-02T15:00:07.613Z,11.80
2022-11-02T15:02:43.007Z,8.07
2022-11-02T15:05:24.028Z,8.98
2022-11-02T15:07:55.584Z,8.40
2022-11-02T15:13:43.545Z,7.97
2022-11-02T15:16:27.308Z,8.20
2022-11-02T15:19:36.619Z,8.82
2022-11-02T15:22:30.223Z,7.47
2022-11-02T15:25:00.987Z,9.10
2022-11-02T15:27:29.854Z,8.70
2022-11-02T15:29:58.919Z,9.90
2022-11-02T15:32:28.266Z,10.27
2022-11-02T15:34:58.544Z,11.52
2022-11-02T15:37:29.565Z,14.50
2022-11-02T15:42:38.980Z,23.92
2022-11-02T15:45:34.224Z,10.00
2022-11-02T15:48:17.902Z,10.73
2022-11-02T15:50:54.230Z,11.05
2022-11-02T15:53:38.410Z,12.73
2022-11-02T15:56:25.221Z,12.50
2022-11-02T15:59:12.530Z,13.75
2022-11-02T16:01:41.631Z,12.43
2022-11-02T16:04:18.465Z,12.23
2022-11-02T16:06:49.568Z,10.88
2022-11-02T16:09:32.473Z,13.18
2022-11-02T16:12:05.369Z,12.32
2022-11-02T16:14:33.712Z,15.75
2022-11-02T16:17:02.138Z,15.23
2022-11-02T16:19:30.198Z,13.57
2022-11-02T16:22:01.543Z,11.27
2022-11-02T16:24:30.067Z,13.57
2022-11-02T16:26:58.789Z,11.32
2022-11-02T16:29:30.909Z,12.98
2022-11-02T16:31:59.410Z,14.55
2022-11-02T16:34:29.953Z,14.27
2022-11-02T16:37:00.334Z,14.55
2022-11-02T16:39:30.497Z,13.38
2022-11-02T16:42:00.577Z,13.98
2022-11-02T16:44:29.902Z,12.15
2022-11-02T16:47:00.136Z,12.07
2022-11-02T16:49:29.473Z,12.70
2022-11-02T16:52:00.361Z,10.95
2022-11-02T16:54:42.234Z,10.40
2022-11-02T16:59:51.645Z,10.75
2022-11-02T17:02:21.125Z,10.52
2022-11-02T17:07:22.640Z,12.75
2022-11-02T17:09:54.097Z,10.52
2022-11-02T17:12:25.130Z,9.32
2022-11-02T17:17:36.637Z,9.18
2022-11-02T17:20:18.170Z,8.23
2022-11-02T17:25:22.608Z,8.07
2022-11-02T17:27:51.507Z,8.65
2022-11-02T17:30:45.028Z,7.90
2022-11-02T17:33:28.451Z,7.97
2022-11-02T17:35:58.348Z,8.55
2022-11-02T17:38:28.664Z,8.25
2022-11-02T17:40:57.160Z,8.23
2022-11-02T17:43:24.317Z,10.35
2022-11-02T17:45:57.150Z,7.95
2022-11-02T17:48:25.693Z,8.95
2022-11-02T17:50:55.395Z,11.77
2022-11-02T17:53:24.221Z,9.20
2022-11-02T17:55:54.542Z,9.45
2022-11-02T17:58:22.700Z,12.77
2022-11-02T18:00:53.937Z,8.15
2022-11-02T18:03:25.378Z,9.10
2022-11-02T18:05:59.822Z,9.80
2022-11-02T18:08:28.282Z,11.52
2022-11-02T18:10:58.261Z,11.90
2022-11-02T18:13:26.311Z,13.00
2022-11-02T18:15:54.785Z,12.55
2022-11-02T18:18:23.215Z,13.68
2022-11-02T18:20:51.613Z,14.60
2022-11-02T18:23:20.506Z,12.75
2022-11-02T18:25:49.081Z,12.15
2022-11-02T18:28:18.678Z,14.13
2022-11-02T18:30:47.077Z,12.93
2022-11-02T18:33:15.624Z,13.68
2022-11-02T18:35:44.321Z,13.50
2022-11-02T18:38:12.971Z,13.52
2022-11-02T18:40:41.610Z,17.40
2022-11-02T18:43:10.051Z,16.17
2022-11-02T18:45:40.270Z,13.38
2022-11-02T18:48:09.794Z,13.32
2022-11-02T18:50:38.493Z,13.10
2022-11-02T18:53:06.715Z,14.00
2022-11-02T18:55:35.113Z,13.32
2022-11-02T18:58:03.551Z,13.75
2022-11-02T19:00:32.182Z,14.35
2022-11-02T19:03:01.914Z,14.32
2022-11-02T19:05:59.549Z,14.18
2022-11-02T19:08:45.254Z,15.25
2022-11-02T19:11:13.736Z,17.50
2022-11-02T19:13:41.861Z,18.25
2022-11-02T19:16:10.278Z,19.50
2022-11-02T19:18:39.794Z,18.60
2022-11-02T19:21:08.304Z,17.10
2022-11-02T19:23:36.714Z,16.42
2022-11-02T19:26:06.713Z,16.83
2022-11-02T19:28:34.918Z,16.13
2022-11-02T19:31:06.041Z,15.25
2022-11-02T19:33:34.231Z,15.52
2022-11-02T19:36:04.169Z,15.30
2022-11-02T19:38:37.431Z,16.45
2022-11-02T19:41:09.904Z,16.15
2022-11-02T19:43:39.116Z,15.65
2022-11-02T19:46:08.711Z,15.50
2022-11-02T19:48:36.912Z,15.30
2022-11-02T19:51:09.216Z,14.70
2022-11-02T19:53:38.352Z,14.30
2022-11-02T19:56:10.499Z,12.68
2022-11-02T19:58:39.438Z,14.73
2022-11-02T20:01:09.497Z,13.57
2022-11-02T20:03:38.455Z,12.40
2022-11-02T20:06:11.742Z,11.48
2022-11-02T20:08:40.236Z,11.68
2022-11-02T20:11:09.860Z,11.15
2022-11-02T20:13:40.448Z,12.18
2022-11-02T20:16:09.566Z,13.05
2022-11-02T20:18:39.798Z,12.82
2022-11-02T20:21:12.669Z,14.20
2022-11-02T20:23:41.759Z,15.70
2022-11-02T20:26:12.053Z,14.52
2022-11-02T20:28:41.809Z,15.18
2022-11-02T20:31:11.469Z,15.88
2022-11-02T20:33:40.920Z,16.10
2022-11-02T20:36:11.572Z,14.75
2022-11-02T20:38:42.243Z,15.88
2022-11-02T20:41:12.477Z,15.55
2022-11-02T20:43:41.912Z,15.00
2022-11-02T20:46:36.556Z,17.80
2022-11-02T20:51:51.448Z,21.92
2022-11-02T20:54:20.194Z,19.25
2022-11-02T20:56:48.910Z,16.17
2022-11-02T20:59:17.123Z,16.67
2022-11-02T21:01:46.061Z,17.30
2022-11-02T21:04:20.232Z,17.15
2022-11-02T21:06:51.285Z,20.15
2022-11-02T21:09:19.535Z,16.75
2022-11-02T21:12:05.775Z,16.20
2022-11-02T21:14:33.942Z,16.52
2022-11-02T21:17:03.224Z,15.13
2022-11-02T21:19:31.402Z,16.55
2022-11-02T21:22:01.180Z,15.43
2022-11-02T21:24:29.725Z,15.70
2022-11-02T21:26:58.336Z,14.80
2022-11-02T21:29:26.475Z,14.63
2022-11-02T21:31:54.906Z,15.65
2022-11-02T21:34:23.071Z,16.10
2022-11-02T21:36:51.449Z,16.40
2022-11-02T21:39:20.867Z,18.13
2022-11-02T21:41:49.545Z,18.35
2022-11-02T21:44:17.630Z,17.52
2022-11-02T21:46:46.195Z,18.25
2022-11-02T21:49:14.277Z,17.10
2022-11-02T21:51:43.033Z,15.40
2022-11-02T21:54:11.486Z,15.98
2022-11-02T21:56:41.387Z,15.35
2022-11-02T21:59:10.178Z,15.70
2022-11-02T22:01:49.431Z,15.35
2022-11-02T22:04:19.608Z,15.05
2022-11-02T22:06:48.270Z,14.00
2022-11-02T22:09:16.428Z,15.40
2022-11-02T22:11:46.413Z,16.17
2022-11-02T22:14:15.229Z,14.95
2022-11-02T22:16:44.707Z,15.45
2022-11-02T22:19:13.701Z,16.48
2022-11-02T22:21:43.847Z,17.02
2022-11-02T22:24:12.468Z,15.25
2022-11-02T22:26:41.316Z,16.08
2022-11-02T22:29:11.420Z,16.63
2022-11-02T22:31:41.674Z,15.85
2022-11-02T22:34:12.020Z,16.20
2022-11-02T22:36:41.976Z,16.37
2022-11-02T22:39:11.976Z,15.55
2022-11-02T22:41:41.411Z,16.70
2022-11-02T22:44:12.255Z,16.17
2022-11-02T22:46:41.677Z,16.70
2022-11-02T22:49:11.262Z,15.70
2022-11-02T22:51:41.312Z,16.88
2022-11-02T22:54:11.803Z,16.15
2022-11-02T22:56:40.212Z,15.75
2022-11-02T22:59:08.481Z,17.50
2022-11-02T23:01:38.601Z,14.50
2022-11-02T23:04:07.990Z,16.08
2022-11-02T23:06:36.455Z,14.68
2022-11-02T23:09:05.065Z,13.55
2022-11-02T23:11:35.529Z,15.05
2022-11-02T23:14:05.609Z,14.63
2022-11-02T23:16:35.054Z,14.80
2022-11-02T23:19:27.628Z,14.25
2022-11-02T23:22:14.991Z,14.32
2022-11-02T23:25:02.399Z,15.43
2022-11-02T23:27:30.991Z,14.50
2022-11-02T23:30:16.620Z,16.38
2022-11-02T23:32:44.810Z,14.80
2022-11-02T23:35:32.208Z,15.30
2022-11-02T23:38:05.348Z,14.23
2022-11-02T23:40:34.178Z,15.55
2022-11-02T23:43:03.273Z,14.35
2022-11-02T23:45:31.954Z,14.73
2022-11-02T23:48:01.448Z,15.13
2022-11-02T23:50:50.676Z,15.60
2022-11-02T23:53:38.269Z,15.23
2022-11-02T23:56:42.077Z,13.52
2022-11-02T23:59:10.176Z,11.73
